Anaktuvuk Pass, Alaska
Current Conditions -  °F | °C
As of 5:56 PM on Saturday 25 Oct 2014 (Local Time) from PAKP Reporting Station
Overcast Overcast  
Wind Chill: -6°   Ceiling: 3600
Heat Index: 12°   Visibility: 3mi
Dew Point:   Wind: 20mph
Humidity: 79%   Direction: 230°SW
Pressure: 29.65"   Gusts: 24mph
Location:  68.14°N, 151.74°W
Report Text: PAKP 260156Z AUTO 23017G21KT 3SM BKN036 OVC044 M11/M14 A2965 RMK AO1
Loading
Personal Weather Stations






























Interactive Weather Map New forecast layout! Learn more

10-Day Weather Forecast

Advertisements
Track Severe Weather on mobile